sensor_id;sensor_type;location;lat;lon;timestamp;temperature;humidity
18335;DHT22;9293;49.524;10.964;2023-05-16T00:01:34;11.50;99.90
18335;DHT22;9293;49.524;10.964;2023-05-16T00:04:02;11.50;99.90
18335;DHT22;9293;49.524;10.964;2023-05-16T00:06:31;11.60;99.90
18335;DHT22;9293;49.524;10.964;2023-05-16T00:08:59;11.60;99.90
18335;DHT22;9293;49.524;10.964;2023-05-16T00:11:27;11.70;99.90
18335;DHT22;9293;49.524;10.964;2023-05-16T00:13:55;11.70;99.90
18335;DHT22;9293;49.524;10.964;2023-05-16T00:16:24;11.70;99.90
18335;DHT22;9293;49.524;10.964;2023-05-16T00:18:52;11.70;99.90
18335;DHT22;9293;49.524;10.964;2023-05-16T00:21:20;11.70;99.90
18335;DHT22;9293;49.524;10.964;2023-05-16T00:23:49;11.70;99.90
18335;DHT22;9293;49.524;10.964;2023-05-16T00:26:18;11.70;99.90
18335;DHT22;9293;49.524;10.964;2023-05-16T00:28:46;11.70;99.90
18335;DHT22;9293;49.524;10.964;2023-05-16T00:31:14;11.70;99.90
18335;DHT22;9293;49.524;10.964;2023-05-16T00:33:43;11.80;99.90
18335;DHT22;9293;49.524;10.964;2023-05-16T00:36:11;11.70;99.90
18335;DHT22;9293;49.524;10.964;2023-05-16T00:38:39;11.70;99.90
18335;DHT22;9293;49.524;10.964;2023-05-16T00:41:07;11.60;99.90
18335;DHT22;9293;49.524;10.964;2023-05-16T00:43:35;11.70;99.90
18335;DHT22;9293;49.524;10.964;2023-05-16T00:46:03;11.70;99.90
18335;DHT22;9293;49.524;10.964;2023-05-16T00:48:31;11.70;99.90
18335;DHT22;9293;49.524;10.964;2023-05-16T00:51:00;11.80;99.90
18335;DHT22;9293;49.524;10.964;2023-05-16T00:53:29;11.80;99.90
18335;DHT22;9293;49.524;10.964;2023-05-16T00:55:57;11.70;99.90
18335;DHT22;9293;49.524;10.964;2023-05-16T00:58:26;11.70;99.90
18335;DHT22;9293;49.524;10.964;2023-05-16T01:00:56;11.60;99.90
18335;DHT22;9293;49.524;10.964;2023-05-16T01:03:24;11.50;99.90
18335;DHT22;9293;49.524;10.964;2023-05-16T01:05:52;11.50;99.90
18335;DHT22;9293;49.524;10.964;2023-05-16T01:08:21;11.50;99.90
18335;DHT22;9293;49.524;10.964;2023-05-16T01:10:52;11.50;99.90
18335;DHT22;9293;49.524;10.964;2023-05-16T01:16:14;11.50;99.90
18335;DHT22;9293;49.524;10.964;2023-05-16T01:24:12;11.50;99.90
18335;DHT22;9293;49.524;10.964;2023-05-16T01:26:41;11.50;99.90
18335;DHT22;9293;49.524;10.964;2023-05-16T01:29:10;11.50;99.90
18335;DHT22;9293;49.524;10.964;2023-05-16T01:31:38;11.50;99.90
18335;DHT22;9293;49.524;10.964;2023-05-16T01:34:06;11.50;99.90
18335;DHT22;9293;49.524;10.964;2023-05-16T01:36:37;11.50;99.90
18335;DHT22;9293;49.524;10.964;2023-05-16T01:44:30;11.40;99.90
18335;DHT22;9293;49.524;10.964;2023-05-16T01:47:00;11.30;99.90
18335;DHT22;9293;49.524;10.964;2023-05-16T01:49:38;11.20;99.90
18335;DHT22;9293;49.524;10.964;2023-05-16T01:52:09;11.20;99.90
18335;DHT22;9293;49.524;10.964;2023-05-16T01:54:38;11.20;99.90
18335;DHT22;9293;49.524;10.964;2023-05-16T01:57:09;11.20;99.90
18335;DHT22;9293;49.524;10.964;2023-05-16T01:59:38;11.30;99.90
18335;DHT22;9293;49.524;10.964;2023-05-16T02:02:06;11.30;99.90
18335;DHT22;9293;49.524;10.964;2023-05-16T02:04:36;11.40;99.90
18335;DHT22;9293;49.524;10.964;2023-05-16T02:07:05;11.40;99.90
18335;DHT22;9293;49.524;10.964;2023-05-16T02:09:33;11.40;99.90
18335;DHT22;9293;49.524;10.964;2023-05-16T02:12:01;11.40;99.90
18335;DHT22;9293;49.524;10.964;2023-05-16T02:14:29;11.40;99.90
18335;DHT22;9293;49.524;10.964;2023-05-16T02:16:57;11.40;99.90
18335;DHT22;9293;49.524;10.964;2023-05-16T02:19:26;11.30;99.90
18335;DHT22;9293;49.524;10.964;2023-05-16T02:21:54;11.30;99.90
18335;DHT22;9293;49.524;10.964;2023-05-16T02:24:22;11.30;99.90
18335;DHT22;9293;49.524;10.964;2023-05-16T02:26:50;11.20;99.90
18335;DHT22;9293;49.524;10.964;2023-05-16T02:29:18;11.10;99.90
18335;DHT22;9293;49.524;10.964;2023-05-16T02:31:46;11.10;99.90
18335;DHT22;9293;49.524;10.964;2023-05-16T02:34:15;11.00;99.90
18335;DHT22;9293;49.524;10.964;2023-05-16T02:36:43;11.00;99.90
18335;DHT22;9293;49.524;10.964;2023-05-16T02:39:11;11.00;99.90
18335;DHT22;9293;49.524;10.964;2023-05-16T02:41:39;11.00;99.90
18335;DHT22;9293;49.524;10.964;2023-05-16T02:44:08;11.10;99.90
18335;DHT22;9293;49.524;10.964;2023-05-16T02:46:36;11.00;99.90
18335;DHT22;9293;49.524;10.964;2023-05-16T02:49:04;11.00;99.90
18335;DHT22;9293;49.524;10.964;2023-05-16T02:51:32;11.00;99.90
18335;DHT22;9293;49.524;10.964;2023-05-16T02:54:00;11.00;99.90
18335;DHT22;9293;49.524;10.964;2023-05-16T02:56:28;11.00;99.90
18335;DHT22;9293;49.524;10.964;2023-05-16T02:58:57;11.00;99.90
18335;DHT22;9293;49.524;10.964;2023-05-16T03:01:25;11.00;99.90
18335;DHT22;9293;49.524;10.964;2023-05-16T03:03:53;10.80;99.90
18335;DHT22;9293;49.524;10.964;2023-05-16T03:06:24;10.70;99.90
18335;DHT22;9293;49.524;10.964;2023-05-16T03:08:58;10.80;99.90
18335;DHT22;9293;49.524;10.964;2023-05-16T03:11:26;10.80;99.90
18335;DHT22;9293;49.524;10.964;2023-05-16T03:13:55;10.90;99.90
18335;DHT22;9293;49.524;10.964;2023-05-16T03:16:27;10.90;99.90
18335;DHT22;9293;49.524;10.964;2023-05-16T03:18:55;10.90;99.90
18335;DHT22;9293;49.524;10.964;2023-05-16T03:21:24;11.00;99.90
18335;DHT22;9293;49.524;10.964;2023-05-16T03:23:52;11.00;99.90
18335;DHT22;9293;49.524;10.964;2023-05-16T03:26:22;11.00;99.90
18335;DHT22;9293;49.524;10.964;2023-05-16T03:28:50;10.90;99.90
18335;DHT22;9293;49.524;10.964;2023-05-16T03:31:18;10.80;99.90
18335;DHT22;9293;49.524;10.964;2023-05-16T03:33:47;10.70;99.90
18335;DHT22;9293;49.524;10.964;2023-05-16T03:36:15;10.60;99.90
18335;DHT22;9293;49.524;10.964;2023-05-16T03:38:43;10.60;99.90
18335;DHT22;9293;49.524;10.964;2023-05-16T03:41:11;10.60;99.90
18335;DHT22;9293;49.524;10.964;2023-05-16T03:43:39;10.60;99.90
18335;DHT22;9293;49.524;10.964;2023-05-16T03:46:08;10.60;99.90
18335;DHT22;9293;49.524;10.964;2023-05-16T03:48:36;10.70;99.90
18335;DHT22;9293;49.524;10.964;2023-05-16T03:51:04;10.70;99.90
18335;DHT22;9293;49.524;10.964;2023-05-16T03:53:32;10.80;99.90
18335;DHT22;9293;49.524;10.964;2023-05-16T03:56:00;10.80;99.90
18335;DHT22;9293;49.524;10.964;2023-05-16T03:58:28;10.80;99.90
18335;DHT22;9293;49.524;10.964;2023-05-16T04:00:56;10.90;99.90
18335;DHT22;9293;49.524;10.964;2023-05-16T04:03:24;10.90;99.90
18335;DHT22;9293;49.524;10.964;2023-05-16T04:05:56;11.00;99.90
18335;DHT22;9293;49.524;10.964;2023-05-16T04:08:24;11.00;99.90
18335;DHT22;9293;49.524;10.964;2023-05-16T04:10:53;11.10;99.90
18335;DHT22;9293;49.524;10.964;2023-05-16T04:13:21;11.10;99.90
18335;DHT22;9293;49.524;10.964;2023-05-16T04:15:49;11.20;99.90
18335;DHT22;9293;49.524;10.964;2023-05-16T04:18:17;11.20;99.90
18335;DHT22;9293;49.524;10.964;2023-05-16T04:20:45;11.20;99.90
18335;DHT22;9293;49.524;10.964;2023-05-16T04:23:14;11.20;99.90
18335;DHT22;9293;49.524;10.964;2023-05-16T04:25:42;11.20;99.90
18335;DHT22;9293;49.524;10.964;2023-05-16T04:28:10;11.10;99.90
18335;DHT22;9293;49.524;10.964;2023-05-16T04:30:39;11.10;99.90
18335;DHT22;9293;49.524;10.964;2023-05-16T04:33:07;11.10;99.90
18335;DHT22;9293;49.524;10.964;2023-05-16T04:35:35;11.20;99.90
18335;DHT22;9293;49.524;10.964;2023-05-16T04:38:04;11.30;99.90
18335;DHT22;9293;49.524;10.964;2023-05-16T04:40:33;11.40;99.90
18335;DHT22;9293;49.524;10.964;2023-05-16T04:43:02;11.50;99.90
18335;DHT22;9293;49.524;10.964;2023-05-16T04:45:30;11.50;99.90
18335;DHT22;9293;49.524;10.964;2023-05-16T04:47:59;11.50;99.90
18335;DHT22;9293;49.524;10.964;2023-05-16T04:50:28;11.50;99.90
18335;DHT22;9293;49.524;10.964;2023-05-16T04:52:56;11.50;99.90
18335;DHT22;9293;49.524;10.964;2023-05-16T04:55:28;11.50;99.90
18335;DHT22;9293;49.524;10.964;2023-05-16T04:58:00;11.60;99.90
18335;DHT22;9293;49.524;10.964;2023-05-16T05:00:28;11.60;99.90
18335;DHT22;9293;49.524;10.964;2023-05-16T05:02:56;11.70;99.90
18335;DHT22;9293;49.524;10.964;2023-05-16T05:05:24;11.70;99.90
18335;DHT22;9293;49.524;10.964;2023-05-16T05:07:53;11.80;99.90
18335;DHT22;9293;49.524;10.964;2023-05-16T05:10:22;11.80;99.90
18335;DHT22;9293;49.524;10.964;2023-05-16T05:12:50;11.80;99.90
18335;DHT22;9293;49.524;10.964;2023-05-16T05:15:18;11.80;99.90
18335;DHT22;9293;49.524;10.964;2023-05-16T05:17:46;11.80;99.90
18335;DHT22;9293;49.524;10.964;2023-05-16T05:20:15;11.80;99.90
18335;DHT22;9293;49.524;10.964;2023-05-16T05:22:43;11.90;99.90
18335;DHT22;9293;49.524;10.964;2023-05-16T05:25:13;11.90;99.90
18335;DHT22;9293;49.524;10.964;2023-05-16T05:27:41;11.90;99.90
18335;DHT22;9293;49.524;10.964;2023-05-16T05:30:09;12.00;99.90
18335;DHT22;9293;49.524;10.964;2023-05-16T05:32:38;12.00;99.90
18335;DHT22;9293;49.524;10.964;2023-05-16T05:35:06;12.00;99.90
18335;DHT22;9293;49.524;10.964;2023-05-16T05:37:34;12.00;99.90
18335;DHT22;9293;49.524;10.964;2023-05-16T05:40:03;12.10;99.90
18335;DHT22;9293;49.524;10.964;2023-05-16T05:42:31;12.10;99.90
18335;DHT22;9293;49.524;10.964;2023-05-16T05:44:59;12.10;99.90
18335;DHT22;9293;49.524;10.964;2023-05-16T05:47:27;12.20;99.90
18335;DHT22;9293;49.524;10.964;2023-05-16T05:49:55;12.20;99.90
18335;DHT22;9293;49.524;10.964;2023-05-16T05:52:24;12.30;99.90
18335;DHT22;9293;49.524;10.964;2023-05-16T05:54:53;12.30;99.90
18335;DHT22;9293;49.524;10.964;2023-05-16T05:57:21;12.40;99.90
18335;DHT22;9293;49.524;10.964;2023-05-16T05:59:49;12.50;99.90
18335;DHT22;9293;49.524;10.964;2023-05-16T06:02:17;12.60;99.90
18335;DHT22;9293;49.524;10.964;2023-05-16T06:04:45;12.70;99.90
18335;DHT22;9293;49.524;10.964;2023-05-16T06:07:13;12.80;99.90
18335;DHT22;9293;49.524;10.964;2023-05-16T06:09:42;12.90;99.90
18335;DHT22;9293;49.524;10.964;2023-05-16T06:12:11;12.90;99.90
18335;DHT22;9293;49.524;10.964;2023-05-16T06:14:39;13.00;99.90
18335;DHT22;9293;49.524;10.964;2023-05-16T06:17:07;13.30;99.90
18335;DHT22;9293;49.524;10.964;2023-05-16T06:19:35;13.80;99.90
18335;DHT22;9293;49.524;10.964;2023-05-16T06:22:03;14.10;99.90
18335;DHT22;9293;49.524;10.964;2023-05-16T06:24:32;14.40;99.90
18335;DHT22;9293;49.524;10.964;2023-05-16T06:27:00;14.50;99.90
18335;DHT22;9293;49.524;10.964;2023-05-16T06:29:28;14.70;99.90
18335;DHT22;9293;49.524;10.964;2023-05-16T06:31:57;15.00;99.90
18335;DHT22;9293;49.524;10.964;2023-05-16T06:34:25;15.20;99.90
18335;DHT22;9293;49.524;10.964;2023-05-16T06:36:55;15.40;99.90
18335;DHT22;9293;49.524;10.964;2023-05-16T06:39:23;15.50;99.90
18335;DHT22;9293;49.524;10.964;2023-05-16T06:41:52;15.40;99.90
18335;DHT22;9293;49.524;10.964;2023-05-16T06:44:22;15.40;99.90
18335;DHT22;9293;49.524;10.964;2023-05-16T06:46:53;15.40;99.90
18335;DHT22;9293;49.524;10.964;2023-05-16T06:49:24;15.50;99.90
18335;DHT22;9293;49.524;10.964;2023-05-16T06:51:54;15.80;99.90
18335;DHT22;9293;49.524;10.964;2023-05-16T06:54:23;15.90;99.90
18335;DHT22;9293;49.524;10.964;2023-05-16T06:56:51;16.00;99.90
18335;DHT22;9293;49.524;10.964;2023-05-16T06:59:19;16.00;99.90
18335;DHT22;9293;49.524;10.964;2023-05-16T07:01:47;16.10;99.90
18335;DHT22;9293;49.524;10.964;2023-05-16T07:04:15;16.20;99.90
18335;DHT22;9293;49.524;10.964;2023-05-16T07:06:44;16.30;99.90
18335;DHT22;9293;49.524;10.964;2023-05-16T07:09:12;16.50;99.90
18335;DHT22;9293;49.524;10.964;2023-05-16T07:11:40;16.70;99.90
18335;DHT22;9293;49.524;10.964;2023-05-16T07:14:09;16.90;99.90
18335;DHT22;9293;49.524;10.964;2023-05-16T07:16:37;17.00;99.90
18335;DHT22;9293;49.524;10.964;2023-05-16T07:19:05;17.10;99.90
18335;DHT22;9293;49.524;10.964;2023-05-16T07:21:34;17.30;99.90
18335;DHT22;9293;49.524;10.964;2023-05-16T07:24:02;17.20;99.90
18335;DHT22;9293;49.524;10.964;2023-05-16T07:26:30;17.10;99.90
18335;DHT22;9293;49.524;10.964;2023-05-16T07:28:58;17.20;99.90
18335;DHT22;9293;49.524;10.964;2023-05-16T07:31:27;17.30;99.90
18335;DHT22;9293;49.524;10.964;2023-05-16T07:33:55;17.50;99.90
18335;DHT22;9293;49.524;10.964;2023-05-16T07:36:23;17.80;99.90
18335;DHT22;9293;49.524;10.964;2023-05-16T07:38:52;17.80;99.90
18335;DHT22;9293;49.524;10.964;2023-05-16T07:41:20;18.00;99.90
18335;DHT22;9293;49.524;10.964;2023-05-16T07:43:48;18.30;99.90
18335;DHT22;9293;49.524;10.964;2023-05-16T07:46:16;18.20;99.90
18335;DHT22;9293;49.524;10.964;2023-05-16T07:48:45;18.20;99.90
18335;DHT22;9293;49.524;10.964;2023-05-16T07:51:13;17.90;99.90
18335;DHT22;9293;49.524;10.964;2023-05-16T07:53:41;17.90;99.90
18335;DHT22;9293;49.524;10.964;2023-05-16T07:56:09;18.00;99.90
18335;DHT22;9293;49.524;10.964;2023-05-16T07:58:38;18.10;99.90
18335;DHT22;9293;49.524;10.964;2023-05-16T08:01:07;18.60;99.90
18335;DHT22;9293;49.524;10.964;2023-05-16T08:03:36;18.70;99.90
18335;DHT22;9293;49.524;10.964;2023-05-16T08:06:05;18.80;99.90
18335;DHT22;9293;49.524;10.964;2023-05-16T08:08:33;18.70;99.90
18335;DHT22;9293;49.524;10.964;2023-05-16T08:11:02;18.60;99.90
18335;DHT22;9293;49.524;10.964;2023-05-16T08:13:30;18.60;99.90
18335;DHT22;9293;49.524;10.964;2023-05-16T08:15:58;18.60;99.90
18335;DHT22;9293;49.524;10.964;2023-05-16T08:18:27;18.50;99.90
18335;DHT22;9293;49.524;10.964;2023-05-16T08:20:55;18.40;99.90
18335;DHT22;9293;49.524;10.964;2023-05-16T08:23:23;18.60;99.90
18335;DHT22;9293;49.524;10.964;2023-05-16T08:25:52;18.80;99.90
18335;DHT22;9293;49.524;10.964;2023-05-16T08:28:21;18.70;99.90
18335;DHT22;9293;49.524;10.964;2023-05-16T08:30:49;18.50;99.90
18335;DHT22;9293;49.524;10.964;2023-05-16T08:33:18;18.70;99.90
18335;DHT22;9293;49.524;10.964;2023-05-16T08:35:46;18.70;99.90
18335;DHT22;9293;49.524;10.964;2023-05-16T08:38:16;18.80;99.90
18335;DHT22;9293;49.524;10.964;2023-05-16T08:40:44;18.90;99.90
18335;DHT22;9293;49.524;10.964;2023-05-16T08:43:12;19.20;99.90
18335;DHT22;9293;49.524;10.964;2023-05-16T08:45:41;19.40;99.90
18335;DHT22;9293;49.524;10.964;2023-05-16T08:48:10;19.40;99.90
18335;DHT22;9293;49.524;10.964;2023-05-16T08:50:44;19.00;99.90
18335;DHT22;9293;49.524;10.964;2023-05-16T08:53:13;18.90;99.90
18335;DHT22;9293;49.524;10.964;2023-05-16T08:55:42;19.00;99.90
18335;DHT22;9293;49.524;10.964;2023-05-16T08:58:11;18.60;99.90
18335;DHT22;9293;49.524;10.964;2023-05-16T09:00:40;18.40;99.90
18335;DHT22;9293;49.524;10.964;2023-05-16T09:03:08;18.10;99.90
18335;DHT22;9293;49.524;10.964;2023-05-16T09:05:36;17.80;99.90
18335;DHT22;9293;49.524;10.964;2023-05-16T09:08:05;17.70;99.90
18335;DHT22;9293;49.524;10.964;2023-05-16T09:10:33;17.70;99.90
18335;DHT22;9293;49.524;10.964;2023-05-16T09:13:01;17.70;99.90
18335;DHT22;9293;49.524;10.964;2023-05-16T09:15:30;17.40;99.90
18335;DHT22;9293;49.524;10.964;2023-05-16T09:17:59;17.10;99.90
18335;DHT22;9293;49.524;10.964;2023-05-16T09:20:28;17.10;99.90
18335;DHT22;9293;49.524;10.964;2023-05-16T09:22:57;17.10;99.90
18335;DHT22;9293;49.524;10.964;2023-05-16T09:25:28;17.00;99.90
18335;DHT22;9293;49.524;10.964;2023-05-16T09:27:59;16.80;99.90
18335;DHT22;9293;49.524;10.964;2023-05-16T09:30:30;16.80;99.90
18335;DHT22;9293;49.524;10.964;2023-05-16T09:32:58;16.80;99.90
18335;DHT22;9293;49.524;10.964;2023-05-16T09:35:27;16.50;99.90
18335;DHT22;9293;49.524;10.964;2023-05-16T09:38:14;16.40;99.90
18335;DHT22;9293;49.524;10.964;2023-05-16T09:40:43;16.50;99.90
18335;DHT22;9293;49.524;10.964;2023-05-16T09:43:13;16.50;99.90
18335;DHT22;9293;49.524;10.964;2023-05-16T09:45:46;16.60;99.90
18335;DHT22;9293;49.524;10.964;2023-05-16T09:48:17;16.60;99.90
18335;DHT22;9293;49.524;10.964;2023-05-16T09:50:50;16.60;99.90
18335;DHT22;9293;49.524;10.964;2023-05-16T09:53:23;16.60;99.90
18335;DHT22;9293;49.524;10.964;2023-05-16T09:56:00;16.60;99.90
18335;DHT22;9293;49.524;10.964;2023-05-16T09:58:35;16.40;99.90
18335;DHT22;9293;49.524;10.964;2023-05-16T10:01:04;16.40;99.90
18335;DHT22;9293;49.524;10.964;2023-05-16T10:03:34;16.30;99.90
18335;DHT22;9293;49.524;10.964;2023-05-16T10:06:03;16.30;99.90
18335;DHT22;9293;49.524;10.964;2023-05-16T10:08:33;16.40;99.90
18335;DHT22;9293;49.524;10.964;2023-05-16T10:11:04;16.30;99.90
18335;DHT22;9293;49.524;10.964;2023-05-16T10:13:33;16.20;99.90
18335;DHT22;9293;49.524;10.964;2023-05-16T10:16:06;16.30;99.90
18335;DHT22;9293;49.524;10.964;2023-05-16T10:18:35;16.40;99.90
18335;DHT22;9293;49.524;10.964;2023-05-16T10:21:07;16.50;99.90
18335;DHT22;9293;49.524;10.964;2023-05-16T10:23:40;16.60;99.90
18335;DHT22;9293;49.524;10.964;2023-05-16T10:26:10;16.80;99.90
18335;DHT22;9293;49.524;10.964;2023-05-16T10:28:43;17.10;99.90
18335;DHT22;9293;49.524;10.964;2023-05-16T10:31:15;17.30;99.90
18335;DHT22;9293;49.524;10.964;2023-05-16T10:33:44;17.60;99.90
18335;DHT22;9293;49.524;10.964;2023-05-16T10:36:12;17.70;99.90
18335;DHT22;9293;49.524;10.964;2023-05-16T10:38:42;17.90;99.90
18335;DHT22;9293;49.524;10.964;2023-05-16T10:41:11;18.10;99.90
18335;DHT22;9293;49.524;10.964;2023-05-16T10:43:42;18.50;99.90
18335;DHT22;9293;49.524;10.964;2023-05-16T10:46:11;18.60;99.90
18335;DHT22;9293;49.524;10.964;2023-05-16T10:48:45;18.70;99.90
18335;DHT22;9293;49.524;10.964;2023-05-16T10:53:53;18.80;99.90
18335;DHT22;9293;49.524;10.964;2023-05-16T10:56:22;18.70;99.90
18335;DHT22;9293;49.524;10.964;2023-05-16T10:58:52;18.80;99.90
18335;DHT22;9293;49.524;10.964;2023-05-16T11:06:32;18.80;99.90
18335;DHT22;9293;49.524;10.964;2023-05-16T11:11:40;18.60;99.90
18335;DHT22;9293;49.524;10.964;2023-05-16T11:14:19;18.60;99.90
18335;DHT22;9293;49.524;10.964;2023-05-16T11:16:49;18.70;99.90
18335;DHT22;9293;49.524;10.964;2023-05-16T11:19:28;18.70;99.90
18335;DHT22;9293;49.524;10.964;2023-05-16T11:22:04;18.60;99.90
18335;DHT22;9293;49.524;10.964;2023-05-16T11:24:33;18.50;99.90
18335;DHT22;9293;49.524;10.964;2023-05-16T11:27:05;18.60;99.90
18335;DHT22;9293;49.524;10.964;2023-05-16T11:29:34;18.70;99.90
18335;DHT22;9293;49.524;10.964;2023-05-16T11:32:03;18.80;99.90
18335;DHT22;9293;49.524;10.964;2023-05-16T11:34:34;18.40;99.90
18335;DHT22;9293;49.524;10.964;2023-05-16T11:37:04;18.30;99.90
18335;DHT22;9293;49.524;10.964;2023-05-16T11:39:33;18.10;99.90
18335;DHT22;9293;49.524;10.964;2023-05-16T11:42:01;17.70;99.90
18335;DHT22;9293;49.524;10.964;2023-05-16T11:44:30;17.40;99.90
18335;DHT22;9293;49.524;10.964;2023-05-16T11:46:59;17.10;99.90
18335;DHT22;9293;49.524;10.964;2023-05-16T11:49:30;16.90;99.90
18335;DHT22;9293;49.524;10.964;2023-05-16T11:52:02;16.80;99.90
18335;DHT22;9293;49.524;10.964;2023-05-16T11:54:30;16.70;99.90
18335;DHT22;9293;49.524;10.964;2023-05-16T11:56:59;16.70;99.90
18335;DHT22;9293;49.524;10.964;2023-05-16T11:59:27;16.70;99.90
18335;DHT22;9293;49.524;10.964;2023-05-16T12:01:56;16.80;99.90
18335;DHT22;9293;49.524;10.964;2023-05-16T12:04:24;17.00;99.90
18335;DHT22;9293;49.524;10.964;2023-05-16T12:06:57;17.10;99.90
18335;DHT22;9293;49.524;10.964;2023-05-16T12:09:28;17.40;99.90
18335;DHT22;9293;49.524;10.964;2023-05-16T12:11:56;17.90;99.90
18335;DHT22;9293;49.524;10.964;2023-05-16T12:14:25;18.20;99.90
18335;DHT22;9293;49.524;10.964;2023-05-16T12:16:53;18.20;99.90
18335;DHT22;9293;49.524;10.964;2023-05-16T12:19:22;18.00;99.90
18335;DHT22;9293;49.524;10.964;2023-05-16T12:21:53;17.80;99.90
18335;DHT22;9293;49.524;10.964;2023-05-16T12:24:27;17.70;99.90
18335;DHT22;9293;49.524;10.964;2023-05-16T12:26:56;17.60;99.90
18335;DHT22;9293;49.524;10.964;2023-05-16T12:29:24;17.90;99.90
18335;DHT22;9293;49.524;10.964;2023-05-16T12:31:53;18.30;99.90
18335;DHT22;9293;49.524;10.964;2023-05-16T12:34:21;18.70;99.90
18335;DHT22;9293;49.524;10.964;2023-05-16T12:36:50;19.10;99.90
18335;DHT22;9293;49.524;10.964;2023-05-16T12:39:22;19.20;99.90
18335;DHT22;9293;49.524;10.964;2023-05-16T12:41:51;19.00;99.90
18335;DHT22;9293;49.524;10.964;2023-05-16T12:44:22;19.20;99.90
18335;DHT22;9293;49.524;10.964;2023-05-16T12:46:56;19.50;99.90
18335;DHT22;9293;49.524;10.964;2023-05-16T12:49:25;19.80;99.90
18335;DHT22;9293;49.524;10.964;2023-05-16T12:51:54;19.70;99.90
18335;DHT22;9293;49.524;10.964;2023-05-16T12:54:33;19.80;99.90
18335;DHT22;9293;49.524;10.964;2023-05-16T12:57:06;19.60;99.90
18335;DHT22;9293;49.524;10.964;2023-05-16T12:59:37;19.20;99.90
18335;DHT22;9293;49.524;10.964;2023-05-16T13:02:07;18.80;99.90
18335;DHT22;9293;49.524;10.964;2023-05-16T13:04:35;18.60;99.90
18335;DHT22;9293;49.524;10.964;2023-05-16T13:07:04;18.50;99.90
18335;DHT22;9293;49.524;10.964;2023-05-16T13:09:32;18.50;99.90
18335;DHT22;9293;49.524;10.964;2023-05-16T13:12:00;18.40;99.90
18335;DHT22;9293;49.524;10.964;2023-05-16T13:14:29;18.60;99.90
18335;DHT22;9293;49.524;10.964;2023-05-16T13:16:57;19.30;99.90
18335;DHT22;9293;49.524;10.964;2023-05-16T13:19:25;19.50;99.90
18335;DHT22;9293;49.524;10.964;2023-05-16T13:21:54;19.30;99.90
18335;DHT22;9293;49.524;10.964;2023-05-16T13:24:23;19.30;99.90
18335;DHT22;9293;49.524;10.964;2023-05-16T13:26:51;18.70;99.90
18335;DHT22;9293;49.524;10.964;2023-05-16T13:29:19;18.60;99.90
18335;DHT22;9293;49.524;10.964;2023-05-16T13:31:47;18.90;99.90
18335;DHT22;9293;49.524;10.964;2023-05-16T13:34:16;18.90;99.90
18335;DHT22;9293;49.524;10.964;2023-05-16T13:36:46;18.80;99.90
18335;DHT22;9293;49.524;10.964;2023-05-16T13:39:20;18.70;99.90
18335;DHT22;9293;49.524;10.964;2023-05-16T13:41:49;18.40;99.90
18335;DHT22;9293;49.524;10.964;2023-05-16T13:44:18;18.20;99.90
18335;DHT22;9293;49.524;10.964;2023-05-16T13:46:46;18.10;99.90
18335;DHT22;9293;49.524;10.964;2023-05-16T13:49:14;18.10;99.90
18335;DHT22;9293;49.524;10.964;2023-05-16T13:51:43;18.00;99.90
18335;DHT22;9293;49.524;10.964;2023-05-16T13:54:13;18.10;99.90
18335;DHT22;9293;49.524;10.964;2023-05-16T13:56:41;18.20;99.90
18335;DHT22;9293;49.524;10.964;2023-05-16T13:59:10;18.10;99.90
18335;DHT22;9293;49.524;10.964;2023-05-16T14:01:49;18.00;99.90
18335;DHT22;9293;49.524;10.964;2023-05-16T14:04:21;18.10;99.90
18335;DHT22;9293;49.524;10.964;2023-05-16T14:06:50;17.90;99.90
18335;DHT22;9293;49.524;10.964;2023-05-16T14:09:18;17.90;99.90
18335;DHT22;9293;49.524;10.964;2023-05-16T14:11:46;17.80;99.90
18335;DHT22;9293;49.524;10.964;2023-05-16T14:14:15;17.60;99.90
18335;DHT22;9293;49.524;10.964;2023-05-16T14:16:43;17.60;99.90
18335;DHT22;9293;49.524;10.964;2023-05-16T14:19:13;17.70;99.90
18335;DHT22;9293;49.524;10.964;2023-05-16T14:21:45;17.70;99.90
18335;DHT22;9293;49.524;10.964;2023-05-16T14:24:13;17.70;99.90
18335;DHT22;9293;49.524;10.964;2023-05-16T14:26:41;17.60;99.90
18335;DHT22;9293;49.524;10.964;2023-05-16T14:29:09;17.50;99.90
18335;DHT22;9293;49.524;10.964;2023-05-16T14:31:38;17.40;99.90
18335;DHT22;9293;49.524;10.964;2023-05-16T14:34:06;17.40;99.90
18335;DHT22;9293;49.524;10.964;2023-05-16T14:36:35;17.40;99.90
18335;DHT22;9293;49.524;10.964;2023-05-16T14:39:03;17.40;99.90
18335;DHT22;9293;49.524;10.964;2023-05-16T14:41:32;17.40;99.90
18335;DHT22;9293;49.524;10.964;2023-05-16T14:44:00;17.60;99.90
18335;DHT22;9293;49.524;10.964;2023-05-16T14:46:28;17.70;99.90
18335;DHT22;9293;49.524;10.964;2023-05-16T14:48:56;17.70;99.90
18335;DHT22;9293;49.524;10.964;2023-05-16T14:51:25;17.70;99.90
18335;DHT22;9293;49.524;10.964;2023-05-16T14:53:54;17.50;99.90
18335;DHT22;9293;49.524;10.964;2023-05-16T14:56:24;17.40;99.90
18335;DHT22;9293;49.524;10.964;2023-05-16T14:58:53;17.10;99.90
18335;DHT22;9293;49.524;10.964;2023-05-16T15:01:22;16.90;99.90
18335;DHT22;9293;49.524;10.964;2023-05-16T15:03:53;16.80;99.90
18335;DHT22;9293;49.524;10.964;2023-05-16T15:06:22;16.70;99.90
18335;DHT22;9293;49.524;10.964;2023-05-16T15:08:54;16.50;99.90
18335;DHT22;9293;49.524;10.964;2023-05-16T15:11:23;16.30;99.90
18335;DHT22;9293;49.524;10.964;2023-05-16T15:13:51;16.10;99.90
18335;DHT22;9293;49.524;10.964;2023-05-16T15:16:19;16.00;99.90
18335;DHT22;9293;49.524;10.964;2023-05-16T15:18:47;16.00;99.90
18335;DHT22;9293;49.524;10.964;2023-05-16T15:21:16;15.90;99.90
18335;DHT22;9293;49.524;10.964;2023-05-16T15:23:45;15.90;99.90
18335;DHT22;9293;49.524;10.964;2023-05-16T15:26:13;16.00;99.90
18335;DHT22;9293;49.524;10.964;2023-05-16T15:28:42;16.10;99.90
18335;DHT22;9293;49.524;10.964;2023-05-16T15:31:10;16.00;99.90
18335;DHT22;9293;49.524;10.964;2023-05-16T15:33:38;16.00;99.90
18335;DHT22;9293;49.524;10.964;2023-05-16T15:36:10;15.80;99.90
18335;DHT22;9293;49.524;10.964;2023-05-16T15:38:42;15.70;99.90
18335;DHT22;9293;49.524;10.964;2023-05-16T15:41:12;15.50;99.90
18335;DHT22;9293;49.524;10.964;2023-05-16T15:44:02;15.40;99.90
18335;DHT22;9293;49.524;10.964;2023-05-16T15:46:33;15.30;99.90
18335;DHT22;9293;49.524;10.964;2023-05-16T15:52:49;14.90;99.90
18335;DHT22;9293;49.524;10.964;2023-05-16T15:55:20;14.80;99.90
18335;DHT22;9293;49.524;10.964;2023-05-16T15:57:49;14.90;99.90
18335;DHT22;9293;49.524;10.964;2023-05-16T16:00:17;14.80;99.90
18335;DHT22;9293;49.524;10.964;2023-05-16T16:02:46;14.80;99.90
18335;DHT22;9293;49.524;10.964;2023-05-16T16:05:15;14.80;99.90
18335;DHT22;9293;49.524;10.964;2023-05-16T16:07:46;14.90;99.90
18335;DHT22;9293;49.524;10.964;2023-05-16T16:10:15;14.90;99.90